sensor_id;sensor_type;location;lat;lon;timestamp;P1;durP1;ratioP1;P2;durP2;ratioP2
79052;SDS011;68451;49.510;6.026;2023-04-24T00:00:45;2.63;;;2.03;;
79052;SDS011;68451;49.510;6.026;2023-04-24T00:03:12;3.13;;;2.20;;
79052;SDS011;68451;49.510;6.026;2023-04-24T00:05:37;2.73;;;2.23;;
79052;SDS011;68451;49.510;6.026;2023-04-24T00:08:05;2.80;;;2.50;;
79052;SDS011;68451;49.510;6.026;2023-04-24T00:10:31;5.60;;;2.67;;
79052;SDS011;68451;49.510;6.026;2023-04-24T00:12:57;5.03;;;3.50;;
79052;SDS011;68451;49.510;6.026;2023-04-24T00:15:22;3.33;;;3.03;;
79052;SDS011;68451;49.510;6.026;2023-04-24T00:17:48;3.47;;;2.60;;
79052;SDS011;68451;49.510;6.026;2023-04-24T00:20:14;4.13;;;3.70;;
79052;SDS011;68451;49.510;6.026;2023-04-24T00:22:40;4.43;;;3.63;;
79052;SDS011;68451;49.510;6.026;2023-04-24T00:25:06;5.00;;;3.43;;
79052;SDS011;68451;49.510;6.026;2023-04-24T00:27:32;5.13;;;3.67;;
79052;SDS011;68451;49.510;6.026;2023-04-24T00:29:57;5.80;;;3.60;;
79052;SDS011;68451;49.510;6.026;2023-04-24T00:32:23;6.97;;;3.40;;
79052;SDS011;68451;49.510;6.026;2023-04-24T00:34:48;5.67;;;3.93;;
79052;SDS011;68451;49.510;6.026;2023-04-24T00:37:14;5.70;;;4.23;;
79052;SDS011;68451;49.510;6.026;2023-04-24T00:39:40;5.83;;;4.73;;
79052;SDS011;68451;49.510;6.026;2023-04-24T00:42:05;7.47;;;5.53;;
79052;SDS011;68451;49.510;6.026;2023-04-24T00:44:32;5.60;;;4.27;;
79052;SDS011;68451;49.510;6.026;2023-04-24T00:46:59;5.17;;;4.20;;
79052;SDS011;68451;49.510;6.026;2023-04-24T00:49:25;5.53;;;4.63;;
79052;SDS011;68451;49.510;6.026;2023-04-24T00:51:50;6.90;;;5.57;;
79052;SDS011;68451;49.510;6.026;2023-04-24T00:54:16;6.60;;;4.60;;
79052;SDS011;68451;49.510;6.026;2023-04-24T00:56:42;5.77;;;4.43;;
79052;SDS011;68451;49.510;6.026;2023-04-24T00:59:09;8.30;;;5.43;;
79052;SDS011;68451;49.510;6.026;2023-04-24T01:01:36;5.10;;;4.60;;
79052;SDS011;68451;49.510;6.026;2023-04-24T01:04:02;8.73;;;5.20;;
79052;SDS011;68451;49.510;6.026;2023-04-24T01:06:28;6.67;;;5.57;;
79052;SDS011;68451;49.510;6.026;2023-04-24T01:08:56;8.23;;;5.70;;
79052;SDS011;68451;49.510;6.026;2023-04-24T01:11:22;6.80;;;6.17;;
79052;SDS011;68451;49.510;6.026;2023-04-24T01:13:48;11.00;;;6.77;;
79052;SDS011;68451;49.510;6.026;2023-04-24T01:16:14;7.13;;;5.47;;
79052;SDS011;68451;49.510;6.026;2023-04-24T01:18:42;8.37;;;6.67;;
79052;SDS011;68451;49.510;6.026;2023-04-24T01:21:08;8.20;;;6.03;;
79052;SDS011;68451;49.510;6.026;2023-04-24T01:23:34;9.90;;;5.70;;
79052;SDS011;68451;49.510;6.026;2023-04-24T01:26:00;8.50;;;5.73;;
79052;SDS011;68451;49.510;6.026;2023-04-24T01:28:25;8.57;;;5.47;;
79052;SDS011;68451;49.510;6.026;2023-04-24T01:30:51;10.07;;;6.87;;
79052;SDS011;68451;49.510;6.026;2023-04-24T01:33:18;7.50;;;5.93;;
79052;SDS011;68451;49.510;6.026;2023-04-24T01:35:46;11.23;;;7.10;;
79052;SDS011;68451;49.510;6.026;2023-04-24T01:38:11;8.70;;;6.63;;
79052;SDS011;68451;49.510;6.026;2023-04-24T01:40:37;10.63;;;7.43;;
79052;SDS011;68451;49.510;6.026;2023-04-24T01:43:03;9.70;;;8.30;;
79052;SDS011;68451;49.510;6.026;2023-04-24T01:45:29;10.73;;;7.83;;
79052;SDS011;68451;49.510;6.026;2023-04-24T01:47:54;11.63;;;9.60;;
79052;SDS011;68451;49.510;6.026;2023-04-24T01:50:20;10.10;;;8.60;;
79052;SDS011;68451;49.510;6.026;2023-04-24T01:52:46;10.37;;;7.80;;
79052;SDS011;68451;49.510;6.026;2023-04-24T01:55:11;13.13;;;8.67;;
79052;SDS011;68451;49.510;6.026;2023-04-24T01:57:37;10.97;;;8.27;;
79052;SDS011;68451;49.510;6.026;2023-04-24T02:00:03;11.67;;;7.80;;
79052;SDS011;68451;49.510;6.026;2023-04-24T02:02:29;12.77;;;8.93;;
79052;SDS011;68451;49.510;6.026;2023-04-24T02:04:55;12.17;;;8.50;;
79052;SDS011;68451;49.510;6.026;2023-04-24T02:07:22;9.13;;;7.80;;
79052;SDS011;68451;49.510;6.026;2023-04-24T02:09:47;9.57;;;7.17;;
79052;SDS011;68451;49.510;6.026;2023-04-24T02:12:13;11.53;;;7.93;;
79052;SDS011;68451;49.510;6.026;2023-04-24T02:14:39;9.17;;;7.33;;
79052;SDS011;68451;49.510;6.026;2023-04-24T02:17:05;10.07;;;7.40;;
79052;SDS011;68451;49.510;6.026;2023-04-24T02:19:31;11.03;;;7.70;;
79052;SDS011;68451;49.510;6.026;2023-04-24T02:21:57;10.03;;;7.83;;
79052;SDS011;68451;49.510;6.026;2023-04-24T02:24:22;11.27;;;8.37;;
79052;SDS011;68451;49.510;6.026;2023-04-24T02:26:48;12.40;;;7.17;;
79052;SDS011;68451;49.510;6.026;2023-04-24T02:29:13;11.70;;;8.70;;
79052;SDS011;68451;49.510;6.026;2023-04-24T02:31:39;11.53;;;8.53;;
79052;SDS011;68451;49.510;6.026;2023-04-24T02:34:05;10.73;;;8.63;;
79052;SDS011;68451;49.510;6.026;2023-04-24T02:36:30;11.00;;;9.17;;
79052;SDS011;68451;49.510;6.026;2023-04-24T02:38:56;11.97;;;9.00;;
79052;SDS011;68451;49.510;6.026;2023-04-24T02:41:22;12.53;;;7.67;;
79052;SDS011;68451;49.510;6.026;2023-04-24T02:43:47;12.37;;;8.40;;
79052;SDS011;68451;49.510;6.026;2023-04-24T02:46:13;10.90;;;8.63;;
79052;SDS011;68451;49.510;6.026;2023-04-24T02:48:39;14.70;;;8.70;;
79052;SDS011;68451;49.510;6.026;2023-04-24T02:51:05;11.53;;;8.70;;
79052;SDS011;68451;49.510;6.026;2023-04-24T02:53:31;13.60;;;8.57;;
79052;SDS011;68451;49.510;6.026;2023-04-24T02:55:57;11.13;;;8.63;;
79052;SDS011;68451;49.510;6.026;2023-04-24T02:58:22;11.60;;;9.27;;
79052;SDS011;68451;49.510;6.026;2023-04-24T03:00:48;11.87;;;8.07;;
79052;SDS011;68451;49.510;6.026;2023-04-24T03:03:13;12.23;;;9.00;;
79052;SDS011;68451;49.510;6.026;2023-04-24T03:05:40;11.87;;;8.50;;
79052;SDS011;68451;49.510;6.026;2023-04-24T03:08:06;12.60;;;9.07;;
79052;SDS011;68451;49.510;6.026;2023-04-24T03:10:31;10.93;;;8.53;;
79052;SDS011;68451;49.510;6.026;2023-04-24T03:12:57;11.83;;;7.87;;
79052;SDS011;68451;49.510;6.026;2023-04-24T03:15:22;15.17;;;8.37;;
79052;SDS011;68451;49.510;6.026;2023-04-24T03:17:48;13.20;;;7.90;;
79052;SDS011;68451;49.510;6.026;2023-04-24T03:20:13;12.60;;;7.70;;
79052;SDS011;68451;49.510;6.026;2023-04-24T03:22:39;8.87;;;6.20;;
79052;SDS011;68451;49.510;6.026;2023-04-24T03:25:05;12.23;;;6.67;;
79052;SDS011;68451;49.510;6.026;2023-04-24T03:27:31;10.50;;;7.00;;
79052;SDS011;68451;49.510;6.026;2023-04-24T03:29:56;9.77;;;7.23;;
79052;SDS011;68451;49.510;6.026;2023-04-24T03:32:22;13.43;;;8.67;;
79052;SDS011;68451;49.510;6.026;2023-04-24T03:34:48;10.40;;;7.03;;
79052;SDS011;68451;49.510;6.026;2023-04-24T03:37:14;8.73;;;6.50;;
79052;SDS011;68451;49.510;6.026;2023-04-24T03:39:40;10.33;;;8.20;;
79052;SDS011;68451;49.510;6.026;2023-04-24T03:42:06;9.77;;;7.20;;
79052;SDS011;68451;49.510;6.026;2023-04-24T03:44:33;9.30;;;7.27;;
79052;SDS011;68451;49.510;6.026;2023-04-24T03:46:59;9.27;;;6.93;;
79052;SDS011;68451;49.510;6.026;2023-04-24T03:49:24;9.90;;;7.97;;
79052;SDS011;68451;49.510;6.026;2023-04-24T03:51:50;9.20;;;6.20;;
79052;SDS011;68451;49.510;6.026;2023-04-24T03:54:17;8.13;;;6.13;;
79052;SDS011;68451;49.510;6.026;2023-04-24T03:56:43;10.13;;;7.70;;
79052;SDS011;68451;49.510;6.026;2023-04-24T03:59:09;9.33;;;6.57;;
79052;SDS011;68451;49.510;6.026;2023-04-24T04:01:34;8.07;;;6.93;;
79052;SDS011;68451;49.510;6.026;2023-04-24T04:04:04;8.43;;;7.20;;
79052;SDS011;68451;49.510;6.026;2023-04-24T04:06:31;9.30;;;6.97;;
79052;SDS011;68451;49.510;6.026;2023-04-24T04:08:57;8.47;;;6.30;;
79052;SDS011;68451;49.510;6.026;2023-04-24T04:11:23;8.10;;;6.50;;
79052;SDS011;68451;49.510;6.026;2023-04-24T04:13:48;6.10;;;5.40;;
79052;SDS011;68451;49.510;6.026;2023-04-24T04:16:14;10.50;;;7.10;;
79052;SDS011;68451;49.510;6.026;2023-04-24T04:18:42;8.43;;;5.63;;
79052;SDS011;68451;49.510;6.026;2023-04-24T04:21:07;7.43;;;5.40;;
79052;SDS011;68451;49.510;6.026;2023-04-24T04:23:33;8.23;;;5.80;;
79052;SDS011;68451;49.510;6.026;2023-04-24T04:25:58;7.80;;;5.67;;
79052;SDS011;68451;49.510;6.026;2023-04-24T04:28:25;10.17;;;6.23;;
79052;SDS011;68451;49.510;6.026;2023-04-24T04:30:51;7.20;;;5.40;;
79052;SDS011;68451;49.510;6.026;2023-04-24T04:33:20;9.50;;;6.47;;
79052;SDS011;68451;49.510;6.026;2023-04-24T04:35:46;6.93;;;5.63;;
79052;SDS011;68451;49.510;6.026;2023-04-24T04:38:17;7.07;;;5.57;;
79052;SDS011;68451;49.510;6.026;2023-04-24T04:40:43;7.83;;;5.87;;
79052;SDS011;68451;49.510;6.026;2023-04-24T04:43:09;8.77;;;5.63;;
79052;SDS011;68451;49.510;6.026;2023-04-24T04:45:36;10.03;;;7.17;;
79052;SDS011;68451;49.510;6.026;2023-04-24T04:48:04;7.97;;;6.20;;
79052;SDS011;68451;49.510;6.026;2023-04-24T04:50:31;9.17;;;6.43;;
79052;SDS011;68451;49.510;6.026;2023-04-24T04:52:56;7.40;;;5.43;;
79052;SDS011;68451;49.510;6.026;2023-04-24T04:55:21;8.23;;;6.50;;
79052;SDS011;68451;49.510;6.026;2023-04-24T04:57:47;9.33;;;6.53;;
79052;SDS011;68451;49.510;6.026;2023-04-24T05:00:13;10.07;;;6.20;;
79052;SDS011;68451;49.510;6.026;2023-04-24T05:05:07;8.17;;;5.97;;
79052;SDS011;68451;49.510;6.026;2023-04-24T05:07:35;9.40;;;6.57;;
79052;SDS011;68451;49.510;6.026;2023-04-24T05:10:01;9.03;;;6.23;;
79052;SDS011;68451;49.510;6.026;2023-04-24T05:12:27;8.53;;;5.97;;
79052;SDS011;68451;49.510;6.026;2023-04-24T05:14:52;7.03;;;5.90;;
79052;SDS011;68451;49.510;6.026;2023-04-24T05:17:19;8.70;;;6.10;;
79052;SDS011;68451;49.510;6.026;2023-04-24T05:19:44;8.73;;;6.30;;
79052;SDS011;68451;49.510;6.026;2023-04-24T05:22:11;7.50;;;5.37;;
79052;SDS011;68451;49.510;6.026;2023-04-24T05:24:37;8.93;;;6.07;;
79052;SDS011;68451;49.510;6.026;2023-04-24T05:27:03;7.77;;;5.83;;
79052;SDS011;68451;49.510;6.026;2023-04-24T05:29:29;8.47;;;6.60;;
79052;SDS011;68451;49.510;6.026;2023-04-24T05:31:56;8.60;;;5.90;;
79052;SDS011;68451;49.510;6.026;2023-04-24T05:34:22;9.77;;;6.00;;
79052;SDS011;68451;49.510;6.026;2023-04-24T05:36:48;10.20;;;4.97;;
79052;SDS011;68451;49.510;6.026;2023-04-24T05:39:15;6.40;;;5.30;;
79052;SDS011;68451;49.510;6.026;2023-04-24T05:41:41;6.03;;;5.43;;
79052;SDS011;68451;49.510;6.026;2023-04-24T05:44:08;7.00;;;5.07;;
79052;SDS011;68451;49.510;6.026;2023-04-24T05:46:34;9.67;;;5.23;;
79052;SDS011;68451;49.510;6.026;2023-04-24T05:49:00;6.33;;;5.20;;
79052;SDS011;68451;49.510;6.026;2023-04-24T05:51:26;7.33;;;5.20;;
79052;SDS011;68451;49.510;6.026;2023-04-24T05:53:51;7.77;;;5.30;;
79052;SDS011;68451;49.510;6.026;2023-04-24T05:56:17;6.03;;;4.73;;
79052;SDS011;68451;49.510;6.026;2023-04-24T05:58:43;10.70;;;5.90;;
79052;SDS011;68451;49.510;6.026;2023-04-24T06:01:09;12.50;;;7.67;;
79052;SDS011;68451;49.510;6.026;2023-04-24T06:03:34;11.10;;;6.03;;
79052;SDS011;68451;49.510;6.026;2023-04-24T06:06:00;11.83;;;6.77;;
79052;SDS011;68451;49.510;6.026;2023-04-24T06:08:25;9.20;;;6.20;;
79052;SDS011;68451;49.510;6.026;2023-04-24T06:10:51;8.93;;;6.27;;
79052;SDS011;68451;49.510;6.026;2023-04-24T06:13:17;8.97;;;6.73;;
79052;SDS011;68451;49.510;6.026;2023-04-24T06:15:43;11.57;;;7.70;;
79052;SDS011;68451;49.510;6.026;2023-04-24T06:18:08;10.53;;;7.77;;
79052;SDS011;68451;49.510;6.026;2023-04-24T06:20:35;10.80;;;7.43;;
79052;SDS011;68451;49.510;6.026;2023-04-24T06:23:01;12.27;;;7.80;;
79052;SDS011;68451;49.510;6.026;2023-04-24T06:25:26;12.37;;;7.70;;
79052;SDS011;68451;49.510;6.026;2023-04-24T06:27:52;13.93;;;7.43;;
79052;SDS011;68451;49.510;6.026;2023-04-24T06:30:19;8.37;;;6.53;;
79052;SDS011;68451;49.510;6.026;2023-04-24T06:32:44;11.37;;;6.83;;
79052;SDS011;68451;49.510;6.026;2023-04-24T06:35:10;9.93;;;6.90;;
79052;SDS011;68451;49.510;6.026;2023-04-24T06:37:38;8.13;;;6.07;;
79052;SDS011;68451;49.510;6.026;2023-04-24T06:40:05;8.97;;;7.03;;
79052;SDS011;68451;49.510;6.026;2023-04-24T06:42:31;11.33;;;7.73;;
79052;SDS011;68451;49.510;6.026;2023-04-24T06:44:56;9.93;;;7.27;;
79052;SDS011;68451;49.510;6.026;2023-04-24T06:47:22;10.60;;;7.27;;
79052;SDS011;68451;49.510;6.026;2023-04-24T06:49:47;10.57;;;7.00;;
79052;SDS011;68451;49.510;6.026;2023-04-24T06:52:13;9.83;;;6.90;;
79052;SDS011;68451;49.510;6.026;2023-04-24T06:54:38;10.47;;;6.93;;
79052;SDS011;68451;49.510;6.026;2023-04-24T06:57:06;9.90;;;7.33;;
79052;SDS011;68451;49.510;6.026;2023-04-24T06:59:33;10.57;;;8.27;;
79052;SDS011;68451;49.510;6.026;2023-04-24T07:01:58;10.40;;;6.87;;
79052;SDS011;68451;49.510;6.026;2023-04-24T07:04:24;9.50;;;6.73;;
79052;SDS011;68451;49.510;6.026;2023-04-24T07:06:50;8.07;;;6.87;;
79052;SDS011;68451;49.510;6.026;2023-04-24T07:09:16;12.60;;;6.57;;
79052;SDS011;68451;49.510;6.026;2023-04-24T07:11:43;6.57;;;5.17;;
79052;SDS011;68451;49.510;6.026;2023-04-24T07:14:09;7.40;;;5.90;;
79052;SDS011;68451;49.510;6.026;2023-04-24T07:16:35;7.07;;;4.87;;
79052;SDS011;68451;49.510;6.026;2023-04-24T07:19:01;5.97;;;5.30;;
79052;SDS011;68451;49.510;6.026;2023-04-24T07:21:26;8.23;;;6.27;;
79052;SDS011;68451;49.510;6.026;2023-04-24T07:23:52;7.77;;;6.13;;
79052;SDS011;68451;49.510;6.026;2023-04-24T07:26:19;10.20;;;5.80;;
79052;SDS011;68451;49.510;6.026;2023-04-24T07:28:45;8.93;;;6.30;;
79052;SDS011;68451;49.510;6.026;2023-04-24T07:31:11;10.30;;;6.17;;
79052;SDS011;68451;49.510;6.026;2023-04-24T07:33:37;7.03;;;6.10;;
79052;SDS011;68451;49.510;6.026;2023-04-24T07:36:03;10.00;;;7.30;;
79052;SDS011;68451;49.510;6.026;2023-04-24T07:38:29;12.37;;;7.10;;
79052;SDS011;68451;49.510;6.026;2023-04-24T07:40:55;8.13;;;7.33;;
79052;SDS011;68451;49.510;6.026;2023-04-24T07:43:21;11.13;;;7.03;;
79052;SDS011;68451;49.510;6.026;2023-04-24T07:45:49;9.77;;;6.67;;
79052;SDS011;68451;49.510;6.026;2023-04-24T07:48:15;10.07;;;6.50;;
79052;SDS011;68451;49.510;6.026;2023-04-24T07:50:41;11.47;;;6.80;;
79052;SDS011;68451;49.510;6.026;2023-04-24T07:53:07;9.70;;;7.13;;
79052;SDS011;68451;49.510;6.026;2023-04-24T07:55:33;12.00;;;8.03;;
79052;SDS011;68451;49.510;6.026;2023-04-24T07:57:58;11.33;;;7.63;;
79052;SDS011;68451;49.510;6.026;2023-04-24T08:00:24;10.93;;;7.33;;
79052;SDS011;68451;49.510;6.026;2023-04-24T08:02:49;10.10;;;7.23;;
79052;SDS011;68451;49.510;6.026;2023-04-24T08:05:15;12.90;;;8.67;;
79052;SDS011;68451;49.510;6.026;2023-04-24T08:07:40;8.87;;;7.27;;
79052;SDS011;68451;49.510;6.026;2023-04-24T08:10:07;10.73;;;8.13;;
79052;SDS011;68451;49.510;6.026;2023-04-24T08:12:35;11.37;;;8.67;;
79052;SDS011;68451;49.510;6.026;2023-04-24T08:15:01;10.23;;;7.33;;
79052;SDS011;68451;49.510;6.026;2023-04-24T08:17:26;10.93;;;7.80;;
79052;SDS011;68451;49.510;6.026;2023-04-24T08:19:52;10.70;;;7.93;;
79052;SDS011;68451;49.510;6.026;2023-04-24T08:22:24;13.80;;;8.75;;
79052;SDS011;68451;49.510;6.026;2023-04-24T08:24:49;13.53;;;8.07;;
79052;SDS011;68451;49.510;6.026;2023-04-24T08:27:15;9.60;;;7.53;;
79052;SDS011;68451;49.510;6.026;2023-04-24T08:29:41;10.20;;;7.53;;
79052;SDS011;68451;49.510;6.026;2023-04-24T08:32:06;10.53;;;7.30;;
79052;SDS011;68451;49.510;6.026;2023-04-24T08:34:32;9.53;;;7.27;;
79052;SDS011;68451;49.510;6.026;2023-04-24T08:36:57;11.80;;;8.33;;
79052;SDS011;68451;49.510;6.026;2023-04-24T08:39:23;9.13;;;7.53;;
79052;SDS011;68451;49.510;6.026;2023-04-24T08:41:48;13.83;;;7.90;;
79052;SDS011;68451;49.510;6.026;2023-04-24T08:44:16;10.80;;;8.73;;
79052;SDS011;68451;49.510;6.026;2023-04-24T08:46:43;13.03;;;7.80;;
79052;SDS011;68451;49.510;6.026;2023-04-24T08:49:13;11.20;;;8.10;;
79052;SDS011;68451;49.510;6.026;2023-04-24T08:51:41;9.63;;;7.07;;
79052;SDS011;68451;49.510;6.026;2023-04-24T08:54:07;11.90;;;7.30;;
79052;SDS011;68451;49.510;6.026;2023-04-24T08:56:34;13.43;;;8.03;;
79052;SDS011;68451;49.510;6.026;2023-04-24T08:59:04;9.10;;;7.47;;
79052;SDS011;68451;49.510;6.026;2023-04-24T09:01:31;12.33;;;8.07;;
79052;SDS011;68451;49.510;6.026;2023-04-24T09:04:00;12.53;;;6.90;;
79052;SDS011;68451;49.510;6.026;2023-04-24T09:06:28;12.03;;;7.43;;
79052;SDS011;68451;49.510;6.026;2023-04-24T09:08:55;9.20;;;8.17;;
79052;SDS011;68451;49.510;6.026;2023-04-24T09:11:25;12.80;;;8.30;;
79052;SDS011;68451;49.510;6.026;2023-04-24T09:13:52;10.83;;;7.53;;
79052;SDS011;68451;49.510;6.026;2023-04-24T09:16:19;11.90;;;7.37;;
79052;SDS011;68451;49.510;6.026;2023-04-24T09:18:45;8.70;;;7.22;;
79052;SDS011;68451;49.510;6.026;2023-04-24T09:21:11;10.53;;;7.20;;
79052;SDS011;68451;49.510;6.026;2023-04-24T09:23:36;12.52;;;7.93;;
79052;SDS011;68451;49.510;6.026;2023-04-24T09:26:04;10.93;;;7.85;;
79052;SDS011;68451;49.510;6.026;2023-04-24T09:28:31;9.38;;;6.88;;
79052;SDS011;68451;49.510;6.026;2023-04-24T09:31:11;11.10;;;7.10;;
79052;SDS011;68451;49.510;6.026;2023-04-24T09:33:39;9.03;;;7.33;;
79052;SDS011;68451;49.510;6.026;2023-04-24T09:36:05;10.68;;;8.10;;
79052;SDS011;68451;49.510;6.026;2023-04-24T09:38:33;10.60;;;7.75;;
79052;SDS011;68451;49.510;6.026;2023-04-24T09:41:06;11.13;;;8.07;;
79052;SDS011;68451;49.510;6.026;2023-04-24T09:43:33;9.00;;;7.50;;
79052;SDS011;68451;49.510;6.026;2023-04-24T09:46:00;9.20;;;7.95;;
79052;SDS011;68451;49.510;6.026;2023-04-24T09:48:31;10.38;;;8.52;;
79052;SDS011;68451;49.510;6.026;2023-04-24T09:50:58;10.18;;;6.90;;
79052;SDS011;68451;49.510;6.026;2023-04-24T09:53:24;11.13;;;8.18;;
79052;SDS011;68451;49.510;6.026;2023-04-24T09:55:50;10.32;;;7.30;;
79052;SDS011;68451;49.510;6.026;2023-04-24T09:58:18;11.02;;;7.75;;
79052;SDS011;68451;49.510;6.026;2023-04-24T10:00:49;9.32;;;7.65;;
79052;SDS011;68451;49.510;6.026;2023-04-24T10:03:19;10.85;;;7.95;;
79052;SDS011;68451;49.510;6.026;2023-04-24T10:05:45;10.60;;;8.65;;
79052;SDS011;68451;49.510;6.026;2023-04-24T10:08:11;9.75;;;7.95;;
79052;SDS011;68451;49.510;6.026;2023-04-24T10:10:39;10.75;;;7.30;;
79052;SDS011;68451;49.510;6.026;2023-04-24T10:13:09;14.65;;;8.07;;
79052;SDS011;68451;49.510;6.026;2023-04-24T10:15:36;11.13;;;7.32;;
79052;SDS011;68451;49.510;6.026;2023-04-24T10:18:02;10.85;;;7.28;;
79052;SDS011;68451;49.510;6.026;2023-04-24T10:20:31;9.05;;;7.30;;
79052;SDS011;68451;49.510;6.026;2023-04-24T10:22:57;8.32;;;6.43;;
79052;SDS011;68451;49.510;6.026;2023-04-24T10:25:24;8.73;;;6.75;;
79052;SDS011;68451;49.510;6.026;2023-04-24T10:27:52;10.20;;;6.53;;
79052;SDS011;68451;49.510;6.026;2023-04-24T10:30:22;10.52;;;7.38;;
79052;SDS011;68451;49.510;6.026;2023-04-24T10:32:48;8.63;;;7.30;;
79052;SDS011;68451;49.510;6.026;2023-04-24T10:35:14;9.98;;;7.40;;
79052;SDS011;68451;49.510;6.026;2023-04-24T10:37:45;7.90;;;6.93;;
79052;SDS011;68451;49.510;6.026;2023-04-24T10:40:24;10.60;;;7.65;;
79052;SDS011;68451;49.510;6.026;2023-04-24T10:42:53;10.60;;;7.47;;
79052;SDS011;68451;49.510;6.026;2023-04-24T10:48:44;9.27;;;7.10;;
79052;SDS011;68451;49.510;6.026;2023-04-24T10:51:18;10.18;;;7.90;;
79052;SDS011;68451;49.510;6.026;2023-04-24T10:53:47;9.35;;;6.80;;
79052;SDS011;68451;49.510;6.026;2023-04-24T10:56:15;10.27;;;8.15;;
79052;SDS011;68451;49.510;6.026;2023-04-24T10:58:42;10.10;;;7.00;;
79052;SDS011;68451;49.510;6.026;2023-04-24T11:01:22;9.63;;;7.25;;
79052;SDS011;68451;49.510;6.026;2023-04-24T11:03:56;12.07;;;8.20;;
79052;SDS011;68451;49.510;6.026;2023-04-24T11:09:02;12.77;;;7.43;;
79052;SDS011;68451;49.510;6.026;2023-04-24T11:11:30;10.85;;;7.35;;
79052;SDS011;68451;49.510;6.026;2023-04-24T11:14:01;14.13;;;8.32;;
79052;SDS011;68451;49.510;6.026;2023-04-24T11:16:30;9.82;;;7.10;;
79052;SDS011;68451;49.510;6.026;2023-04-24T11:21:55;9.02;;;7.07;;
79052;SDS011;68451;49.510;6.026;2023-04-24T11:24:29;11.82;;;7.82;;
79052;SDS011;68451;49.510;6.026;2023-04-24T11:27:19;9.50;;;6.60;;
79052;SDS011;68451;49.510;6.026;2023-04-24T11:29:47;8.63;;;6.57;;
79052;SDS011;68451;49.510;6.026;2023-04-24T11:32:27;10.73;;;7.97;;
79052;SDS011;68451;49.510;6.026;2023-04-24T11:34:55;8.90;;;7.05;;
79052;SDS011;68451;49.510;6.026;2023-04-24T11:37:24;9.48;;;6.50;;
79052;SDS011;68451;49.510;6.026;2023-04-24T11:47:00;8.63;;;7.13;;
79052;SDS011;68451;49.510;6.026;2023-04-24T11:49:26;9.05;;;6.72;;
79052;SDS011;68451;49.510;6.026;2023-04-24T11:51:55;10.40;;;6.55;;
79052;SDS011;68451;49.510;6.026;2023-04-24T11:54:21;9.63;;;7.45;;
79052;SDS011;68451;49.510;6.026;2023-04-24T11:56:47;11.40;;;7.70;;
79052;SDS011;68451;49.510;6.026;2023-04-24T11:59:14;11.10;;;7.28;;
79052;SDS011;68451;49.510;6.026;2023-04-24T12:01:43;11.55;;;8.05;;
79052;SDS011;68451;49.510;6.026;2023-04-24T12:04:13;12.00;;;7.60;;
79052;SDS011;68451;49.510;6.026;2023-04-24T12:06:39;11.23;;;7.20;;
79052;SDS011;68451;49.510;6.026;2023-04-24T12:09:05;12.23;;;7.80;;
79052;SDS011;68451;49.510;6.026;2023-04-24T12:11:31;11.13;;;8.00;;
79052;SDS011;68451;49.510;6.026;2023-04-24T12:13:57;16.38;;;7.40;;
79052;SDS011;68451;49.510;6.026;2023-04-24T12:16:23;11.73;;;8.23;;
79052;SDS011;68451;49.510;6.026;2023-04-24T12:18:51;8.05;;;6.40;;
79052;SDS011;68451;49.510;6.026;2023-04-24T12:21:21;10.13;;;6.85;;
79052;SDS011;68451;49.510;6.026;2023-04-24T12:23:48;12.27;;;7.25;;
79052;SDS011;68451;49.510;6.026;2023-04-24T12:26:17;8.05;;;6.45;;
79052;SDS011;68451;49.510;6.026;2023-04-24T12:28:45;8.13;;;7.13;;
79052;SDS011;68451;49.510;6.026;2023-04-24T12:31:12;8.07;;;6.70;;
79052;SDS011;68451;49.510;6.026;2023-04-24T12:33:37;8.48;;;6.38;;
79052;SDS011;68451;49.510;6.026;2023-04-24T12:36:03;8.77;;;6.63;;
79052;SDS011;68451;49.510;6.026;2023-04-24T12:38:30;8.18;;;6.53;;
79052;SDS011;68451;49.510;6.026;2023-04-24T12:41:03;8.27;;;6.43;;
79052;SDS011;68451;49.510;6.026;2023-04-24T12:43:30;9.57;;;6.97;;
79052;SDS011;68451;49.510;6.026;2023-04-24T12:45:56;10.02;;;6.90;;
79052;SDS011;68451;49.510;6.026;2023-04-24T12:48:24;8.18;;;6.68;;
79052;SDS011;68451;49.510;6.026;2023-04-24T12:50:50;8.02;;;6.03;;
79052;SDS011;68451;49.510;6.026;2023-04-24T12:53:16;9.30;;;6.95;;
79052;SDS011;68451;49.510;6.026;2023-04-24T12:59:03;10.35;;;8.07;;
79052;SDS011;68451;49.510;6.026;2023-04-24T13:01:28;13.50;;;8.65;;
79052;SDS011;68451;49.510;6.026;2023-04-24T13:03:54;11.82;;;7.90;;
79052;SDS011;68451;49.510;6.026;2023-04-24T13:06:20;8.90;;;6.47;;
79052;SDS011;68451;49.510;6.026;2023-04-24T13:08:46;8.20;;;6.40;;
79052;SDS011;68451;49.510;6.026;2023-04-24T13:11:12;6.57;;;5.28;;
79052;SDS011;68451;49.510;6.026;2023-04-24T13:13:38;6.65;;;4.85;;
79052;SDS011;68451;49.510;6.026;2023-04-24T13:16:04;7.60;;;5.25;;
79052;SDS011;68451;49.510;6.026;2023-04-24T13:18:30;6.00;;;4.82;;
79052;SDS011;68451;49.510;6.026;2023-04-24T13:20:56;6.57;;;5.13;;
79052;SDS011;68451;49.510;6.026;2023-04-24T13:23:22;8.25;;;5.03;;
79052;SDS011;68451;49.510;6.026;2023-04-24T13:25:48;8.45;;;6.25;;
79052;SDS011;68451;49.510;6.026;2023-04-24T13:28:13;7.13;;;6.07;;
79052;SDS011;68451;49.510;6.026;2023-04-24T13:30:39;8.55;;;6.30;;
79052;SDS011;68451;49.510;6.026;2023-04-24T13:33:05;8.30;;;6.40;;
79052;SDS011;68451;49.510;6.026;2023-04-24T13:35:31;9.68;;;6.70;;
79052;SDS011;68451;49.510;6.026;2023-04-24T13:37:57;8.73;;;6.97;;
79052;SDS011;68451;49.510;6.026;2023-04-24T13:40:26;10.73;;;6.80;;
79052;SDS011;68451;49.510;6.026;2023-04-24T13:42:52;9.35;;;6.72;;
79052;SDS011;68451;49.510;6.026;2023-04-24T13:45:17;7.25;;;6.25;;
79052;SDS011;68451;49.510;6.026;2023-04-24T13:47:43;10.73;;;6.47;;
79052;SDS011;68451;49.510;6.026;2023-04-24T13:50:08;6.03;;;4.90;;
79052;SDS011;68451;49.510;6.026;2023-04-24T13:52:34;6.43;;;4.53;;
79052;SDS011;68451;49.510;6.026;2023-04-24T13:55:00;5.70;;;4.25;;
79052;SDS011;68451;49.510;6.026;2023-04-24T13:57:26;9.05;;;4.40;;
79052;SDS011;68451;49.510;6.026;2023-04-24T13:59:53;5.65;;;4.13;;
79052;SDS011;68451;49.510;6.026;2023-04-24T14:02:20;6.10;;;4.30;;
79052;SDS011;68451;49.510;6.026;2023-04-24T14:04:46;8.23;;;4.45;;
79052;SDS011;68451;49.510;6.026;2023-04-24T14:07:13;5.97;;;4.57;;
79052;SDS011;68451;49.510;6.026;2023-04-24T14:09:38;5.25;;;4.50;;
79052;SDS011;68451;49.510;6.026;2023-04-24T14:12:04;6.45;;;4.82;;
79052;SDS011;68451;49.510;6.026;2023-04-24T14:14:30;9.38;;;5.55;;
79052;SDS011;68451;49.510;6.026;2023-04-24T14:16:56;6.53;;;4.82;;
79052;SDS011;68451;49.510;6.026;2023-04-24T14:19:22;9.98;;;5.18;;
79052;SDS011;68451;49.510;6.026;2023-04-24T14:21:47;5.03;;;4.18;;
79052;SDS011;68451;49.510;6.026;2023-04-24T14:24:13;5.47;;;4.72;;
79052;SDS011;68451;49.510;6.026;2023-04-24T14:26:38;6.35;;;4.07;;
79052;SDS011;68451;49.510;6.026;2023-04-24T14:29:04;6.25;;;4.30;;
79052;SDS011;68451;49.510;6.026;2023-04-24T14:31:30;5.40;;;4.90;;
79052;SDS011;68451;49.510;6.026;2023-04-24T14:33:55;4.97;;;3.70;;
79052;SDS011;68451;49.510;6.026;2023-04-24T14:36:21;4.53;;;3.60;;
79052;SDS011;68451;49.510;6.026;2023-04-24T14:38:46;4.03;;;3.10;;
79052;SDS011;68451;49.510;6.026;2023-04-24T14:41:12;3.92;;;2.33;;
79052;SDS011;68451;49.510;6.026;2023-04-24T14:43:37;2.42;;;1.98;;
79052;SDS011;68451;49.510;6.026;2023-04-24T14:46:03;2.17;;;1.77;;
79052;SDS011;68451;49.510;6.026;2023-04-24T14:48:29;2.67;;;1.98;;
79052;SDS011;68451;49.510;6.026;2023-04-24T14:50:55;2.08;;;1.85;;
79052;SDS011;68451;49.510;6.026;2023-04-24T14:53:20;2.22;;;1.85;;
79052;SDS011;68451;49.510;6.026;2023-04-24T14:55:46;2.43;;;1.90;;
79052;SDS011;68451;49.510;6.026;2023-04-24T14:58:11;3.42;;;1.77;;
79052;SDS011;68451;49.510;6.026;2023-04-24T15:00:37;2.00;;;1.55;;